Terminal Aerodrome Forecast
Issued by NWS

Home | Current Version | Previous Version | Text Only | Print | Product List | Glossary On
Versions: 1 2 3 4 5 6 7 8 9 10 11 12 13 14 15 16 17 18 19 20 21 22 23 24 25 26 27 28 29 30 31 32 33
000
FTUS44 KHGX 220520
TAFSGR
TAF
KSGR 220520Z 2206/2306 VRB03KT P6SM SCT250
      TEMPO 2209/2213 6SM BR
     FM221700 02006KT P6SM FEW040 SCT100
     FM222100 05007KT P6SM VCTS SCT050CB
     FM230100 03003KT P6SM SCT250=

USA.gov is the U.S. government's official web portal to all federal, state and local government web resources and services.